< < Back
Terminal Aerodrome Forecast


Current Version              Previous Versions:   1  2  3  4  5  6  7  8  9  

Terminal Aerodrome Forecast

580
FTUS44 KMRX 302016 AAA
TAFTYS
TAF AMD
KTYS 302016Z 3020/3118 22006KT P6SM VCTS SCT035CB BKN060
      TEMPO 3020/3021 VRB05G15KT 3SM +TSRA BKN030CB
     FM302300 23007KT P6SM VCTS BKN050CB
     FM310500 VRB03KT P6SM SCT060 BKN150
     FM310900 00000KT 5SM BR SCT150 BKN250
     FM311300 23004KT P6SM SCT035 BKN120=

Latest METAR

016
SAUS80 KWBC 310000
MTRTYS
METAR KTYS 302353Z 05003KT 10SM BKN110 OVC250 26/23 A3007 RMK AO2 LTG
DSNT W SLP172 60018 T02560233 10317 20228 53000


USA.gov is the U.S. government's official web portal to all federal, state and local government web resources and services.